Terminal Aerodrome Forecast
Issued by NWS

Home | Current Version | Previous Version | Graphics & Text | Print | Product List | Glossary On
Versions: 1 2 3 4 5 6 7 8 9 10 11 12 13 14 15 16 17 18
887
FTUS43 KGRB 060527
TAFCWA
TAF
KCWA 060527Z 0606/0706 23005KT 6SM -SN SCT025 BKN040
      TEMPO 0606/0610 5SM -SN BKN025
     FM061000 24004KT P6SM BKN025
     FM061400 24008KT P6SM BKN020
     FM070000 18006KT P6SM BKN020
      AMD LTD TO CLD VIS AND WND TIL 11Z=

USA.gov is the U.S. government's official web portal to all federal, state and local government web resources and services.